createdAt,value
2022-10-01T00:26:45.051Z,79
2022-10-01T00:56:47.521Z,77
2022-10-01T01:26:49.066Z,73
2022-10-01T01:56:44.334Z,72
2022-10-01T02:26:45.395Z,68
2022-10-01T02:56:46.710Z,67
2022-10-01T03:26:49.902Z,66
2022-10-01T03:56:46.994Z,66
2022-10-01T04:26:49.733Z,66
2022-10-01T04:56:52.004Z,64
2022-10-01T05:26:47.677Z,64
2022-10-01T05:56:43.926Z,67
2022-10-01T06:26:41.945Z,63
2022-10-01T06:56:37.280Z,109
2022-10-01T07:26:39.489Z,230
2022-10-01T07:56:38.474Z,148
2022-10-01T08:26:33.549Z,141
2022-10-01T08:56:33.478Z,131
2022-10-01T09:26:29.151Z,130
2022-10-01T09:56:32.093Z,124
2022-10-01T10:26:29.735Z,120
2022-10-01T11:26:37.582Z,111
2022-10-01T11:56:35.581Z,108
2022-10-01T12:26:41.987Z,107
2022-10-01T12:56:46.502Z,133
2022-10-01T13:26:50.789Z,110
2022-10-01T13:56:47.748Z,106
2022-10-01T14:26:46.510Z,129
2022-10-01T14:56:44.598Z,118
2022-10-01T15:26:46.856Z,114
2022-10-01T15:56:43.616Z,118
2022-10-01T16:26:40.749Z,115
2022-10-01T16:56:42.581Z,109
2022-10-01T17:26:44.891Z,105
2022-10-01T17:56:43.141Z,102
2022-10-01T18:26:46.842Z,102
2022-10-01T18:56:43.183Z,104
2022-10-01T19:26:40.230Z,122
2022-10-01T19:56:38.718Z,123
2022-10-01T20:26:41.887Z,110
2022-10-01T20:56:39.888Z,108
2022-10-01T21:26:41.396Z,108
2022-10-01T21:56:41.649Z,109
2022-10-01T22:26:42.010Z,106
2022-10-01T22:56:40.098Z,106
2022-10-01T23:26:43.729Z,102
2022-10-01T23:56:48.298Z,103
